sensor_id;sensor_type;location;lat;lon;timestamp;P1;durP1;ratioP1;P2;durP2;ratioP2
81903;SDS011;71370;-33.792;151.032;2023-07-29T00:00:21;8.50;;;4.50;;
81903;SDS011;71370;-33.792;151.032;2023-07-29T00:01:28;7.60;;;3.80;;
81903;SDS011;71370;-33.792;151.032;2023-07-29T00:02:35;8.20;;;4.60;;
81903;SDS011;71370;-33.792;151.032;2023-07-29T00:03:42;9.70;;;4.80;;
81903;SDS011;71370;-33.792;151.032;2023-07-29T00:04:49;7.30;;;4.70;;
81903;SDS011;71370;-33.792;151.032;2023-07-29T00:05:56;6.10;;;4.40;;
81903;SDS011;71370;-33.792;151.032;2023-07-29T00:07:03;6.60;;;3.80;;
81903;SDS011;71370;-33.792;151.032;2023-07-29T00:08:10;8.70;;;4.90;;
81903;SDS011;71370;-33.792;151.032;2023-07-29T00:09:17;7.10;;;4.40;;
81903;SDS011;71370;-33.792;151.032;2023-07-29T00:10:25;6.50;;;4.00;;
81903;SDS011;71370;-33.792;151.032;2023-07-29T00:11:32;8.10;;;4.20;;
81903;SDS011;71370;-33.792;151.032;2023-07-29T00:12:40;6.50;;;3.90;;
81903;SDS011;71370;-33.792;151.032;2023-07-29T00:13:47;6.20;;;3.60;;
81903;SDS011;71370;-33.792;151.032;2023-07-29T00:14:55;6.20;;;4.40;;
81903;SDS011;71370;-33.792;151.032;2023-07-29T00:16:02;8.10;;;4.20;;
81903;SDS011;71370;-33.792;151.032;2023-07-29T00:17:09;5.80;;;3.50;;
81903;SDS011;71370;-33.792;151.032;2023-07-29T00:18:16;6.70;;;3.70;;
81903;SDS011;71370;-33.792;151.032;2023-07-29T00:19:23;6.90;;;4.10;;
81903;SDS011;71370;-33.792;151.032;2023-07-29T00:20:30;7.90;;;4.50;;
81903;SDS011;71370;-33.792;151.032;2023-07-29T00:21:37;6.10;;;3.90;;
81903;SDS011;71370;-33.792;151.032;2023-07-29T00:22:44;7.70;;;3.80;;
81903;SDS011;71370;-33.792;151.032;2023-07-29T00:23:51;6.70;;;3.50;;
81903;SDS011;71370;-33.792;151.032;2023-07-29T00:24:58;6.60;;;4.40;;
81903;SDS011;71370;-33.792;151.032;2023-07-29T00:26:05;7.30;;;4.00;;
81903;SDS011;71370;-33.792;151.032;2023-07-29T00:27:12;6.70;;;3.40;;
81903;SDS011;71370;-33.792;151.032;2023-07-29T00:28:19;6.30;;;3.30;;
81903;SDS011;71370;-33.792;151.032;2023-07-29T00:29:26;6.00;;;3.10;;
81903;SDS011;71370;-33.792;151.032;2023-07-29T00:30:33;7.40;;;4.10;;
81903;SDS011;71370;-33.792;151.032;2023-07-29T00:31:40;7.20;;;3.80;;
81903;SDS011;71370;-33.792;151.032;2023-07-29T00:32:46;7.90;;;3.70;;
81903;SDS011;71370;-33.792;151.032;2023-07-29T00:33:53;7.10;;;3.40;;
81903;SDS011;71370;-33.792;151.032;2023-07-29T00:35:01;7.40;;;3.80;;
81903;SDS011;71370;-33.792;151.032;2023-07-29T00:36:08;5.50;;;3.60;;
81903;SDS011;71370;-33.792;151.032;2023-07-29T00:37:15;6.70;;;3.80;;
81903;SDS011;71370;-33.792;151.032;2023-07-29T00:38:22;6.00;;;3.00;;
81903;SDS011;71370;-33.792;151.032;2023-07-29T00:39:28;5.50;;;2.70;;
81903;SDS011;71370;-33.792;151.032;2023-07-29T00:40:35;2.10;;;0.90;;
81903;SDS011;71370;-33.792;151.032;2023-07-29T00:41:42;1.80;;;0.50;;
81903;SDS011;71370;-33.792;151.032;2023-07-29T00:42:49;2.70;;;1.00;;
81903;SDS011;71370;-33.792;151.032;2023-07-29T00:43:56;3.80;;;0.70;;
81903;SDS011;71370;-33.792;151.032;2023-07-29T00:45:03;2.90;;;0.90;;
81903;SDS011;71370;-33.792;151.032;2023-07-29T00:46:13;2.50;;;1.10;;
81903;SDS011;71370;-33.792;151.032;2023-07-29T00:47:21;2.30;;;0.70;;
81903;SDS011;71370;-33.792;151.032;2023-07-29T00:48:31;3.00;;;0.50;;
81903;SDS011;71370;-33.792;151.032;2023-07-29T00:49:37;2.50;;;1.20;;
81903;SDS011;71370;-33.792;151.032;2023-07-29T00:50:45;1.90;;;0.60;;
81903;SDS011;71370;-33.792;151.032;2023-07-29T00:51:52;2.40;;;0.80;;
81903;SDS011;71370;-33.792;151.032;2023-07-29T00:52:59;2.80;;;1.00;;
81903;SDS011;71370;-33.792;151.032;2023-07-29T00:54:06;2.40;;;0.70;;
81903;SDS011;71370;-33.792;151.032;2023-07-29T00:55:13;3.00;;;0.80;;
81903;SDS011;71370;-33.792;151.032;2023-07-29T00:56:20;2.90;;;0.50;;
81903;SDS011;71370;-33.792;151.032;2023-07-29T00:57:27;2.10;;;0.80;;
81903;SDS011;71370;-33.792;151.032;2023-07-29T00:58:35;2.40;;;0.50;;
81903;SDS011;71370;-33.792;151.032;2023-07-29T00:59:43;2.20;;;1.00;;
81903;SDS011;71370;-33.792;151.032;2023-07-29T01:00:50;2.20;;;0.70;;
81903;SDS011;71370;-33.792;151.032;2023-07-29T01:01:57;3.60;;;0.50;;
81903;SDS011;71370;-33.792;151.032;2023-07-29T01:03:04;3.50;;;1.00;;
81903;SDS011;71370;-33.792;151.032;2023-07-29T01:04:12;2.20;;;0.80;;
81903;SDS011;71370;-33.792;151.032;2023-07-29T01:05:19;2.50;;;0.80;;
81903;SDS011;71370;-33.792;151.032;2023-07-29T01:06:29;2.60;;;0.40;;
81903;SDS011;71370;-33.792;151.032;2023-07-29T01:09:03;2.80;;;1.00;;
81903;SDS011;71370;-33.792;151.032;2023-07-29T01:13:05;3.20;;;0.80;;
81903;SDS011;71370;-33.792;151.032;2023-07-29T01:14:19;2.20;;;1.10;;
81903;SDS011;71370;-33.792;151.032;2023-07-29T01:16:55;1.60;;;0.40;;
81903;SDS011;71370;-33.792;151.032;2023-07-29T01:18:08;3.80;;;1.10;;
81903;SDS011;71370;-33.792;151.032;2023-07-29T01:20:53;3.30;;;1.60;;
81903;SDS011;71370;-33.792;151.032;2023-07-29T01:22:06;3.30;;;1.20;;
81903;SDS011;71370;-33.792;151.032;2023-07-29T01:23:15;4.40;;;1.40;;
81903;SDS011;71370;-33.792;151.032;2023-07-29T01:24:22;2.80;;;1.10;;
81903;SDS011;71370;-33.792;151.032;2023-07-29T01:25:29;3.40;;;1.40;;
81903;SDS011;71370;-33.792;151.032;2023-07-29T01:26:36;2.80;;;0.90;;
81903;SDS011;71370;-33.792;151.032;2023-07-29T01:27:44;2.60;;;0.70;;
81903;SDS011;71370;-33.792;151.032;2023-07-29T01:28:53;4.40;;;0.70;;
81903;SDS011;71370;-33.792;151.032;2023-07-29T01:30:00;3.70;;;1.20;;
81903;SDS011;71370;-33.792;151.032;2023-07-29T01:31:10;2.80;;;0.70;;
81903;SDS011;71370;-33.792;151.032;2023-07-29T01:32:25;2.30;;;0.50;;
81903;SDS011;71370;-33.792;151.032;2023-07-29T01:33:34;2.30;;;0.70;;
81903;SDS011;71370;-33.792;151.032;2023-07-29T01:34:51;4.50;;;0.90;;
81903;SDS011;71370;-33.792;151.032;2023-07-29T01:36:11;1.90;;;0.80;;
81903;SDS011;71370;-33.792;151.032;2023-07-29T01:37:22;1.90;;;1.10;;
81903;SDS011;71370;-33.792;151.032;2023-07-29T01:38:33;2.20;;;0.70;;
81903;SDS011;71370;-33.792;151.032;2023-07-29T01:39:44;3.10;;;0.90;;
81903;SDS011;71370;-33.792;151.032;2023-07-29T01:40:52;2.30;;;0.60;;
81903;SDS011;71370;-33.792;151.032;2023-07-29T01:41:59;2.00;;;0.90;;
81903;SDS011;71370;-33.792;151.032;2023-07-29T01:43:07;1.80;;;0.50;;
81903;SDS011;71370;-33.792;151.032;2023-07-29T01:44:14;2.00;;;0.60;;
81903;SDS011;71370;-33.792;151.032;2023-07-29T01:45:23;2.30;;;0.60;;
81903;SDS011;71370;-33.792;151.032;2023-07-29T01:46:33;3.70;;;0.40;;
81903;SDS011;71370;-33.792;151.032;2023-07-29T01:47:41;3.20;;;0.60;;
81903;SDS011;71370;-33.792;151.032;2023-07-29T01:48:47;3.00;;;1.00;;
81903;SDS011;71370;-33.792;151.032;2023-07-29T01:49:54;2.50;;;0.60;;
81903;SDS011;71370;-33.792;151.032;2023-07-29T01:51:01;2.80;;;1.10;;
81903;SDS011;71370;-33.792;151.032;2023-07-29T01:52:09;2.00;;;0.60;;
81903;SDS011;71370;-33.792;151.032;2023-07-29T01:53:16;3.00;;;0.50;;
81903;SDS011;71370;-33.792;151.032;2023-07-29T01:54:23;1.90;;;0.60;;
81903;SDS011;71370;-33.792;151.032;2023-07-29T01:55:30;2.10;;;0.60;;
81903;SDS011;71370;-33.792;151.032;2023-07-29T01:56:37;2.00;;;0.60;;
81903;SDS011;71370;-33.792;151.032;2023-07-29T01:57:43;2.50;;;0.80;;
81903;SDS011;71370;-33.792;151.032;2023-07-29T01:58:50;2.90;;;0.60;;
81903;SDS011;71370;-33.792;151.032;2023-07-29T01:59:57;2.10;;;0.40;;
81903;SDS011;71370;-33.792;151.032;2023-07-29T02:01:04;3.00;;;0.70;;
81903;SDS011;71370;-33.792;151.032;2023-07-29T02:02:11;2.40;;;0.80;;
81903;SDS011;71370;-33.792;151.032;2023-07-29T02:03:18;3.30;;;0.80;;
81903;SDS011;71370;-33.792;151.032;2023-07-29T02:04:25;2.80;;;0.80;;
81903;SDS011;71370;-33.792;151.032;2023-07-29T02:05:32;2.10;;;0.60;;
81903;SDS011;71370;-33.792;151.032;2023-07-29T02:06:39;2.60;;;0.70;;
81903;SDS011;71370;-33.792;151.032;2023-07-29T02:07:46;3.10;;;1.70;;
81903;SDS011;71370;-33.792;151.032;2023-07-29T02:08:53;2.70;;;0.90;;
81903;SDS011;71370;-33.792;151.032;2023-07-29T02:10:01;2.50;;;0.70;;
81903;SDS011;71370;-33.792;151.032;2023-07-29T02:11:08;2.00;;;0.60;;
81903;SDS011;71370;-33.792;151.032;2023-07-29T02:12:15;2.50;;;0.90;;
81903;SDS011;71370;-33.792;151.032;2023-07-29T02:13:21;3.30;;;1.20;;
81903;SDS011;71370;-33.792;151.032;2023-07-29T02:14:28;3.00;;;0.70;;
81903;SDS011;71370;-33.792;151.032;2023-07-29T02:15:35;3.10;;;1.00;;
81903;SDS011;71370;-33.792;151.032;2023-07-29T02:16:42;2.40;;;0.80;;
81903;SDS011;71370;-33.792;151.032;2023-07-29T02:17:50;3.50;;;1.10;;
81903;SDS011;71370;-33.792;151.032;2023-07-29T02:18:57;2.60;;;0.80;;
81903;SDS011;71370;-33.792;151.032;2023-07-29T02:20:04;2.60;;;0.70;;
81903;SDS011;71370;-33.792;151.032;2023-07-29T02:21:11;1.90;;;0.50;;
81903;SDS011;71370;-33.792;151.032;2023-07-29T02:22:18;2.90;;;0.50;;
81903;SDS011;71370;-33.792;151.032;2023-07-29T02:23:25;2.50;;;0.70;;
81903;SDS011;71370;-33.792;151.032;2023-07-29T02:24:32;3.80;;;0.90;;
81903;SDS011;71370;-33.792;151.032;2023-07-29T02:25:39;2.30;;;0.90;;
81903;SDS011;71370;-33.792;151.032;2023-07-29T02:26:46;2.30;;;0.40;;
81903;SDS011;71370;-33.792;151.032;2023-07-29T02:27:53;2.10;;;0.70;;
81903;SDS011;71370;-33.792;151.032;2023-07-29T02:29:00;1.90;;;0.60;;
81903;SDS011;71370;-33.792;151.032;2023-07-29T02:30:07;3.90;;;1.00;;
81903;SDS011;71370;-33.792;151.032;2023-07-29T02:31:16;3.20;;;0.80;;
81903;SDS011;71370;-33.792;151.032;2023-07-29T02:32:27;2.90;;;1.10;;
81903;SDS011;71370;-33.792;151.032;2023-07-29T02:33:34;2.20;;;0.60;;
81903;SDS011;71370;-33.792;151.032;2023-07-29T02:34:41;2.80;;;0.90;;
81903;SDS011;71370;-33.792;151.032;2023-07-29T02:35:48;2.00;;;0.80;;
81903;SDS011;71370;-33.792;151.032;2023-07-29T02:36:55;1.90;;;0.50;;
81903;SDS011;71370;-33.792;151.032;2023-07-29T02:38:02;1.80;;;0.60;;
81903;SDS011;71370;-33.792;151.032;2023-07-29T02:39:09;3.30;;;0.80;;
81903;SDS011;71370;-33.792;151.032;2023-07-29T02:40:16;2.40;;;0.80;;
81903;SDS011;71370;-33.792;151.032;2023-07-29T02:41:23;1.80;;;0.50;;
81903;SDS011;71370;-33.792;151.032;2023-07-29T02:42:30;2.50;;;0.50;;
81903;SDS011;71370;-33.792;151.032;2023-07-29T02:43:37;2.60;;;0.90;;
81903;SDS011;71370;-33.792;151.032;2023-07-29T02:44:44;3.10;;;0.80;;
81903;SDS011;71370;-33.792;151.032;2023-07-29T02:45:51;2.00;;;1.30;;
81903;SDS011;71370;-33.792;151.032;2023-07-29T02:46:58;1.80;;;0.70;;
81903;SDS011;71370;-33.792;151.032;2023-07-29T02:48:05;2.20;;;0.70;;
81903;SDS011;71370;-33.792;151.032;2023-07-29T02:49:12;1.70;;;0.70;;
81903;SDS011;71370;-33.792;151.032;2023-07-29T02:50:19;2.20;;;0.90;;
81903;SDS011;71370;-33.792;151.032;2023-07-29T02:51:26;2.30;;;0.70;;
81903;SDS011;71370;-33.792;151.032;2023-07-29T02:52:33;2.10;;;0.90;;
81903;SDS011;71370;-33.792;151.032;2023-07-29T02:53:40;4.30;;;0.80;;
81903;SDS011;71370;-33.792;151.032;2023-07-29T02:54:47;3.10;;;1.10;;
81903;SDS011;71370;-33.792;151.032;2023-07-29T02:55:54;2.70;;;0.90;;
81903;SDS011;71370;-33.792;151.032;2023-07-29T02:57:01;3.50;;;1.30;;
81903;SDS011;71370;-33.792;151.032;2023-07-29T02:58:08;2.90;;;0.50;;
81903;SDS011;71370;-33.792;151.032;2023-07-29T02:59:15;2.60;;;1.10;;
81903;SDS011;71370;-33.792;151.032;2023-07-29T03:00:21;2.60;;;0.90;;
81903;SDS011;71370;-33.792;151.032;2023-07-29T03:01:28;2.20;;;0.80;;
81903;SDS011;71370;-33.792;151.032;2023-07-29T03:02:35;2.10;;;1.10;;
81903;SDS011;71370;-33.792;151.032;2023-07-29T03:03:42;2.90;;;0.80;;
81903;SDS011;71370;-33.792;151.032;2023-07-29T03:04:49;2.30;;;0.70;;
81903;SDS011;71370;-33.792;151.032;2023-07-29T03:07:10;1.50;;;0.50;;
81903;SDS011;71370;-33.792;151.032;2023-07-29T03:08:17;2.20;;;0.80;;
81903;SDS011;71370;-33.792;151.032;2023-07-29T03:09:24;1.30;;;0.30;;
81903;SDS011;71370;-33.792;151.032;2023-07-29T03:10:31;1.70;;;0.50;;
81903;SDS011;71370;-33.792;151.032;2023-07-29T03:11:40;2.50;;;0.60;;
81903;SDS011;71370;-33.792;151.032;2023-07-29T03:12:47;2.70;;;0.70;;
81903;SDS011;71370;-33.792;151.032;2023-07-29T03:13:54;2.60;;;0.70;;
81903;SDS011;71370;-33.792;151.032;2023-07-29T03:15:02;2.30;;;0.80;;
81903;SDS011;71370;-33.792;151.032;2023-07-29T03:16:11;2.00;;;0.70;;
81903;SDS011;71370;-33.792;151.032;2023-07-29T03:17:22;1.50;;;0.50;;
81903;SDS011;71370;-33.792;151.032;2023-07-29T03:18:29;2.30;;;0.40;;
81903;SDS011;71370;-33.792;151.032;2023-07-29T03:19:35;1.60;;;0.40;;
81903;SDS011;71370;-33.792;151.032;2023-07-29T03:20:42;2.40;;;0.60;;
81903;SDS011;71370;-33.792;151.032;2023-07-29T03:21:49;2.70;;;1.00;;
81903;SDS011;71370;-33.792;151.032;2023-07-29T03:22:56;2.40;;;1.00;;
81903;SDS011;71370;-33.792;151.032;2023-07-29T03:24:03;2.20;;;0.60;;
81903;SDS011;71370;-33.792;151.032;2023-07-29T03:25:10;2.40;;;0.70;;
81903;SDS011;71370;-33.792;151.032;2023-07-29T03:26:17;2.70;;;0.90;;
81903;SDS011;71370;-33.792;151.032;2023-07-29T03:27:24;2.60;;;0.50;;
81903;SDS011;71370;-33.792;151.032;2023-07-29T03:28:32;2.00;;;0.60;;
81903;SDS011;71370;-33.792;151.032;2023-07-29T03:29:39;2.60;;;0.50;;
81903;SDS011;71370;-33.792;151.032;2023-07-29T03:30:46;2.50;;;0.70;;
81903;SDS011;71370;-33.792;151.032;2023-07-29T03:31:53;3.00;;;0.50;;
81903;SDS011;71370;-33.792;151.032;2023-07-29T03:33:00;1.80;;;0.60;;
81903;SDS011;71370;-33.792;151.032;2023-07-29T03:34:07;3.20;;;0.70;;
81903;SDS011;71370;-33.792;151.032;2023-07-29T03:35:16;4.10;;;0.70;;
81903;SDS011;71370;-33.792;151.032;2023-07-29T03:36:23;2.00;;;0.80;;
81903;SDS011;71370;-33.792;151.032;2023-07-29T03:37:31;2.30;;;0.80;;
81903;SDS011;71370;-33.792;151.032;2023-07-29T03:38:38;2.90;;;0.90;;
81903;SDS011;71370;-33.792;151.032;2023-07-29T03:39:45;2.90;;;0.50;;
81903;SDS011;71370;-33.792;151.032;2023-07-29T03:40:52;3.20;;;0.90;;
81903;SDS011;71370;-33.792;151.032;2023-07-29T03:42:00;2.50;;;0.50;;
81903;SDS011;71370;-33.792;151.032;2023-07-29T03:43:07;2.30;;;0.90;;
81903;SDS011;71370;-33.792;151.032;2023-07-29T03:44:14;1.80;;;0.50;;
81903;SDS011;71370;-33.792;151.032;2023-07-29T03:45:21;1.60;;;0.60;;
81903;SDS011;71370;-33.792;151.032;2023-07-29T03:46:28;2.70;;;0.70;;
81903;SDS011;71370;-33.792;151.032;2023-07-29T03:47:35;1.50;;;0.80;;
81903;SDS011;71370;-33.792;151.032;2023-07-29T03:48:42;2.80;;;0.80;;
81903;SDS011;71370;-33.792;151.032;2023-07-29T03:49:49;2.60;;;0.90;;
81903;SDS011;71370;-33.792;151.032;2023-07-29T03:50:56;1.90;;;0.80;;
81903;SDS011;71370;-33.792;151.032;2023-07-29T03:52:03;4.70;;;0.80;;
81903;SDS011;71370;-33.792;151.032;2023-07-29T03:53:10;2.30;;;0.60;;
81903;SDS011;71370;-33.792;151.032;2023-07-29T03:54:17;2.10;;;0.80;;
81903;SDS011;71370;-33.792;151.032;2023-07-29T03:55:24;2.50;;;0.60;;
81903;SDS011;71370;-33.792;151.032;2023-07-29T03:56:31;2.30;;;0.90;;
81903;SDS011;71370;-33.792;151.032;2023-07-29T03:57:40;1.90;;;0.80;;
81903;SDS011;71370;-33.792;151.032;2023-07-29T03:58:47;2.30;;;0.50;;
81903;SDS011;71370;-33.792;151.032;2023-07-29T03:59:55;2.60;;;0.70;;
81903;SDS011;71370;-33.792;151.032;2023-07-29T04:01:01;1.60;;;0.50;;
81903;SDS011;71370;-33.792;151.032;2023-07-29T04:02:10;3.80;;;0.60;;
81903;SDS011;71370;-33.792;151.032;2023-07-29T04:03:16;3.10;;;0.70;;
81903;SDS011;71370;-33.792;151.032;2023-07-29T04:04:23;2.00;;;0.80;;
81903;SDS011;71370;-33.792;151.032;2023-07-29T04:05:30;2.50;;;0.60;;
81903;SDS011;71370;-33.792;151.032;2023-07-29T04:06:37;2.90;;;0.80;;
81903;SDS011;71370;-33.792;151.032;2023-07-29T04:07:44;2.00;;;0.60;;
81903;SDS011;71370;-33.792;151.032;2023-07-29T04:08:52;2.00;;;0.80;;
81903;SDS011;71370;-33.792;151.032;2023-07-29T04:09:58;2.90;;;0.90;;
81903;SDS011;71370;-33.792;151.032;2023-07-29T04:11:06;2.40;;;0.90;;
81903;SDS011;71370;-33.792;151.032;2023-07-29T04:12:13;2.00;;;0.60;;
81903;SDS011;71370;-33.792;151.032;2023-07-29T04:13:20;1.80;;;0.60;;
81903;SDS011;71370;-33.792;151.032;2023-07-29T04:14:27;2.20;;;0.70;;
81903;SDS011;71370;-33.792;151.032;2023-07-29T04:15:34;2.30;;;0.70;;
81903;SDS011;71370;-33.792;151.032;2023-07-29T04:16:41;1.80;;;0.50;;
81903;SDS011;71370;-33.792;151.032;2023-07-29T04:17:48;2.00;;;0.60;;
81903;SDS011;71370;-33.792;151.032;2023-07-29T04:18:55;1.80;;;0.70;;
81903;SDS011;71370;-33.792;151.032;2023-07-29T04:20:02;2.20;;;0.70;;
81903;SDS011;71370;-33.792;151.032;2023-07-29T04:21:10;1.90;;;0.80;;
81903;SDS011;71370;-33.792;151.032;2023-07-29T04:22:18;1.70;;;0.50;;
81903;SDS011;71370;-33.792;151.032;2023-07-29T04:23:24;2.50;;;0.60;;
81903;SDS011;71370;-33.792;151.032;2023-07-29T04:24:31;2.10;;;0.60;;
81903;SDS011;71370;-33.792;151.032;2023-07-29T04:25:38;2.70;;;1.10;;
81903;SDS011;71370;-33.792;151.032;2023-07-29T04:26:45;2.80;;;1.00;;
81903;SDS011;71370;-33.792;151.032;2023-07-29T04:27:52;2.60;;;0.90;;
81903;SDS011;71370;-33.792;151.032;2023-07-29T04:29:00;2.80;;;0.90;;
81903;SDS011;71370;-33.792;151.032;2023-07-29T04:30:07;2.00;;;0.60;;
81903;SDS011;71370;-33.792;151.032;2023-07-29T04:31:14;2.90;;;0.60;;
81903;SDS011;71370;-33.792;151.032;2023-07-29T04:32:21;2.70;;;0.90;;
81903;SDS011;71370;-33.792;151.032;2023-07-29T04:33:29;2.50;;;0.50;;
81903;SDS011;71370;-33.792;151.032;2023-07-29T04:34:36;2.70;;;0.70;;
81903;SDS011;71370;-33.792;151.032;2023-07-29T04:35:43;1.50;;;0.40;;
81903;SDS011;71370;-33.792;151.032;2023-07-29T04:36:50;2.40;;;0.60;;
81903;SDS011;71370;-33.792;151.032;2023-07-29T04:37:56;2.50;;;0.60;;
81903;SDS011;71370;-33.792;151.032;2023-07-29T04:39:03;2.40;;;0.50;;
81903;SDS011;71370;-33.792;151.032;2023-07-29T04:40:10;2.40;;;0.70;;
81903;SDS011;71370;-33.792;151.032;2023-07-29T04:41:17;3.30;;;1.40;;
81903;SDS011;71370;-33.792;151.032;2023-07-29T04:42:24;2.40;;;0.60;;
81903;SDS011;71370;-33.792;151.032;2023-07-29T04:43:31;2.30;;;0.50;;
81903;SDS011;71370;-33.792;151.032;2023-07-29T04:44:38;1.60;;;0.50;;
81903;SDS011;71370;-33.792;151.032;2023-07-29T04:45:47;1.90;;;0.30;;
81903;SDS011;71370;-33.792;151.032;2023-07-29T04:46:54;2.70;;;0.60;;
81903;SDS011;71370;-33.792;151.032;2023-07-29T04:48:01;3.50;;;0.60;;
81903;SDS011;71370;-33.792;151.032;2023-07-29T04:49:08;2.60;;;0.80;;
81903;SDS011;71370;-33.792;151.032;2023-07-29T04:50:15;2.50;;;0.90;;
81903;SDS011;71370;-33.792;151.032;2023-07-29T04:51:23;3.00;;;0.60;;
81903;SDS011;71370;-33.792;151.032;2023-07-29T04:52:30;2.00;;;0.70;;
81903;SDS011;71370;-33.792;151.032;2023-07-29T04:53:37;2.30;;;0.60;;
81903;SDS011;71370;-33.792;151.032;2023-07-29T04:54:44;2.00;;;0.60;;
81903;SDS011;71370;-33.792;151.032;2023-07-29T04:55:51;1.80;;;0.60;;
81903;SDS011;71370;-33.792;151.032;2023-07-29T04:56:58;2.10;;;0.70;;
81903;SDS011;71370;-33.792;151.032;2023-07-29T04:58:05;2.60;;;1.20;;
81903;SDS011;71370;-33.792;151.032;2023-07-29T04:59:11;2.30;;;1.10;;
81903;SDS011;71370;-33.792;151.032;2023-07-29T05:00:18;2.70;;;0.80;;
81903;SDS011;71370;-33.792;151.032;2023-07-29T05:01:25;3.10;;;0.60;;
81903;SDS011;71370;-33.792;151.032;2023-07-29T05:02:32;2.40;;;0.60;;
81903;SDS011;71370;-33.792;151.032;2023-07-29T05:03:39;2.00;;;0.50;;
81903;SDS011;71370;-33.792;151.032;2023-07-29T05:04:46;3.20;;;0.90;;
81903;SDS011;71370;-33.792;151.032;2023-07-29T05:05:53;2.10;;;0.50;;
81903;SDS011;71370;-33.792;151.032;2023-07-29T05:07:01;3.40;;;0.80;;
81903;SDS011;71370;-33.792;151.032;2023-07-29T05:08:08;1.90;;;0.70;;
81903;SDS011;71370;-33.792;151.032;2023-07-29T05:09:15;3.20;;;1.10;;
81903;SDS011;71370;-33.792;151.032;2023-07-29T05:10:23;2.70;;;0.60;;
81903;SDS011;71370;-33.792;151.032;2023-07-29T05:11:30;2.80;;;0.80;;
81903;SDS011;71370;-33.792;151.032;2023-07-29T05:12:37;2.60;;;0.50;;
81903;SDS011;71370;-33.792;151.032;2023-07-29T05:13:44;2.70;;;0.70;;
81903;SDS011;71370;-33.792;151.032;2023-07-29T05:14:51;1.80;;;0.40;;
81903;SDS011;71370;-33.792;151.032;2023-07-29T05:15:58;1.80;;;0.40;;
81903;SDS011;71370;-33.792;151.032;2023-07-29T05:17:05;1.90;;;0.90;;
81903;SDS011;71370;-33.792;151.032;2023-07-29T05:18:12;3.20;;;0.50;;
81903;SDS011;71370;-33.792;151.032;2023-07-29T05:19:19;1.90;;;0.60;;
81903;SDS011;71370;-33.792;151.032;2023-07-29T05:20:25;2.50;;;0.50;;
81903;SDS011;71370;-33.792;151.032;2023-07-29T05:21:32;2.60;;;0.60;;
81903;SDS011;71370;-33.792;151.032;2023-07-29T05:22:39;2.20;;;0.50;;
81903;SDS011;71370;-33.792;151.032;2023-07-29T05:23:46;2.50;;;0.70;;
81903;SDS011;71370;-33.792;151.032;2023-07-29T05:24:53;1.90;;;0.50;;
81903;SDS011;71370;-33.792;151.032;2023-07-29T05:26:00;1.60;;;0.40;;
81903;SDS011;71370;-33.792;151.032;2023-07-29T05:27:07;2.20;;;0.40;;
81903;SDS011;71370;-33.792;151.032;2023-07-29T05:28:14;2.60;;;0.60;;
81903;SDS011;71370;-33.792;151.032;2023-07-29T05:29:21;2.60;;;0.80;;
81903;SDS011;71370;-33.792;151.032;2023-07-29T05:30:28;4.90;;;1.80;;
81903;SDS011;71370;-33.792;151.032;2023-07-29T05:32:52;2.40;;;0.60;;
81903;SDS011;71370;-33.792;151.032;2023-07-29T05:33:59;2.90;;;0.90;;
81903;SDS011;71370;-33.792;151.032;2023-07-29T05:35:06;4.10;;;1.50;;
81903;SDS011;71370;-33.792;151.032;2023-07-29T05:36:14;3.80;;;1.30;;
81903;SDS011;71370;-33.792;151.032;2023-07-29T05:37:21;3.40;;;1.20;;
81903;SDS011;71370;-33.792;151.032;2023-07-29T05:38:28;3.30;;;0.50;;
81903;SDS011;71370;-33.792;151.032;2023-07-29T05:39:34;3.30;;;0.80;;
81903;SDS011;71370;-33.792;151.032;2023-07-29T05:40:42;3.30;;;1.20;;
81903;SDS011;71370;-33.792;151.032;2023-07-29T05:41:49;4.50;;;1.70;;
81903;SDS011;71370;-33.792;151.032;2023-07-29T05:42:56;3.50;;;1.80;;
81903;SDS011;71370;-33.792;151.032;2023-07-29T05:44:03;3.50;;;2.00;;
81903;SDS011;71370;-33.792;151.032;2023-07-29T05:45:11;4.00;;;1.30;;
81903;SDS011;71370;-33.792;151.032;2023-07-29T05:46:18;3.30;;;1.50;;
81903;SDS011;71370;-33.792;151.032;2023-07-29T05:47:25;4.20;;;2.30;;
81903;SDS011;71370;-33.792;151.032;2023-07-29T05:48:32;3.60;;;1.50;;
81903;SDS011;71370;-33.792;151.032;2023-07-29T05:49:39;4.60;;;1.50;;
81903;SDS011;71370;-33.792;151.032;2023-07-29T05:50:46;4.00;;;1.60;;
81903;SDS011;71370;-33.792;151.032;2023-07-29T05:51:53;3.50;;;1.60;;
81903;SDS011;71370;-33.792;151.032;2023-07-29T05:53:00;3.70;;;1.90;;
81903;SDS011;71370;-33.792;151.032;2023-07-29T05:54:07;4.00;;;1.70;;
81903;SDS011;71370;-33.792;151.032;2023-07-29T05:55:14;3.90;;;1.80;;
81903;SDS011;71370;-33.792;151.032;2023-07-29T05:56:21;3.40;;;1.80;;
81903;SDS011;71370;-33.792;151.032;2023-07-29T05:57:28;4.50;;;2.50;;
81903;SDS011;71370;-33.792;151.032;2023-07-29T05:58:35;3.60;;;1.70;;
81903;SDS011;71370;-33.792;151.032;2023-07-29T05:59:42;3.60;;;1.90;;
81903;SDS011;71370;-33.792;151.032;2023-07-29T06:00:49;3.80;;;1.80;;
81903;SDS011;71370;-33.792;151.032;2023-07-29T06:01:56;4.10;;;1.60;;
81903;SDS011;71370;-33.792;151.032;2023-07-29T06:03:03;4.30;;;2.30;;
81903;SDS011;71370;-33.792;151.032;2023-07-29T06:04:10;3.50;;;1.50;;
81903;SDS011;71370;-33.792;151.032;2023-07-29T06:05:17;4.40;;;2.20;;
81903;SDS011;71370;-33.792;151.032;2023-07-29T06:06:24;4.80;;;2.10;;
81903;SDS011;71370;-33.792;151.032;2023-07-29T06:07:31;4.00;;;1.80;;
81903;SDS011;71370;-33.792;151.032;2023-07-29T06:08:39;3.70;;;1.50;;
81903;SDS011;71370;-33.792;151.032;2023-07-29T06:09:46;4.30;;;1.60;;
81903;SDS011;71370;-33.792;151.032;2023-07-29T06:10:53;3.50;;;1.80;;
81903;SDS011;71370;-33.792;151.032;2023-07-29T06:12:00;4.80;;;1.70;;
81903;SDS011;71370;-33.792;151.032;2023-07-29T06:13:07;4.40;;;1.90;;
81903;SDS011;71370;-33.792;151.032;2023-07-29T06:14:14;3.50;;;2.10;;
81903;SDS011;71370;-33.792;151.032;2023-07-29T06:15:22;3.70;;;1.80;;
81903;SDS011;71370;-33.792;151.032;2023-07-29T06:16:29;4.10;;;2.00;;
81903;SDS011;71370;-33.792;151.032;2023-07-29T06:17:35;4.60;;;1.60;;
81903;SDS011;71370;-33.792;151.032;2023-07-29T06:18:42;4.40;;;2.10;;
81903;SDS011;71370;-33.792;151.032;2023-07-29T06:19:49;2.80;;;1.40;;
81903;SDS011;71370;-33.792;151.032;2023-07-29T06:20:56;3.50;;;1.60;;
81903;SDS011;71370;-33.792;151.032;2023-07-29T06:22:03;3.40;;;1.60;;
81903;SDS011;71370;-33.792;151.032;2023-07-29T06:23:11;3.40;;;1.50;;
81903;SDS011;71370;-33.792;151.032;2023-07-29T06:24:18;3.30;;;1.60;;
81903;SDS011;71370;-33.792;151.032;2023-07-29T06:25:25;3.90;;;1.30;;
81903;SDS011;71370;-33.792;151.032;2023-07-29T06:26:31;3.30;;;1.30;;
81903;SDS011;71370;-33.792;151.032;2023-07-29T06:27:38;4.80;;;1.80;;
81903;SDS011;71370;-33.792;151.032;2023-07-29T06:28:45;4.30;;;1.40;;
81903;SDS011;71370;-33.792;151.032;2023-07-29T06:29:52;4.50;;;1.40;;
81903;SDS011;71370;-33.792;151.032;2023-07-29T06:30:59;3.90;;;1.50;;
81903;SDS011;71370;-33.792;151.032;2023-07-29T06:32:06;3.10;;;1.40;;
81903;SDS011;71370;-33.792;151.032;2023-07-29T06:33:13;3.30;;;1.30;;
81903;SDS011;71370;-33.792;151.032;2023-07-29T06:34:20;3.70;;;1.70;;
81903;SDS011;71370;-33.792;151.032;2023-07-29T06:35:28;3.00;;;1.10;;
81903;SDS011;71370;-33.792;151.032;2023-07-29T06:36:34;3.70;;;1.50;;
81903;SDS011;71370;-33.792;151.032;2023-07-29T06:37:41;3.00;;;1.30;;